Time;durP1;ratioP1;P1;durP2;ratioP2;P2;SDS_P1;SDS_P2;PMS_P1;PMS_P2;Temp;Humidity;BMP_temperature;BMP_pressure;BME280_temperature;BME280_humidity;BME280_pressure;Samples;Min_cycle;Max_cycle;Signal;HPM_P1;HPM_P2
2023/08/26 00:00:09;;;;;;;4.83;2.33;;;16.00;76.10;;;;;;5053120;28;20180;-91
2023/08/26 00:02:36;;;;;;;5.67;2.27;;;15.90;76.90;;;;;;5056758;28;20184;-90
2023/08/26 00:05:02;;;;;;;6.37;2.00;;;16.00;76.00;;;;;;5055352;28;20242;-90
2023/08/26 00:07:28;;;;;;;5.73;2.30;;;16.00;75.30;;;;;;5061300;28;20165;-90
2023/08/26 00:09:53;;;;;;;5.20;2.80;;;16.10;71.40;;;;;;5067189;28;20230;-90
2023/08/26 00:12:23;;;;;;;4.07;2.20;;;16.00;71.20;;;;;;5059888;28;20200;-90
2023/08/26 00:14:49;;;;;;;4.77;2.03;;;16.00;74.50;;;;;;5055994;28;20205;-91
2023/08/26 00:17:14;;;;;;;6.13;2.30;;;15.90;74.50;;;;;;5061143;28;20162;-90
2023/08/26 00:19:41;;;;;;;6.23;2.13;;;15.90;76.80;;;;;;5068089;28;20179;-91
2023/08/26 00:22:07;;;;;;;4.60;2.00;;;15.90;74.70;;;;;;5047852;28;20180;-91
2023/08/26 00:24:32;;;;;;;5.27;2.20;;;15.90;76.10;;;;;;5058969;28;20179;-89
2023/08/26 00:26:58;;;;;;;4.80;2.33;;;15.80;76.50;;;;;;5054751;28;20560;-90
2023/08/26 00:29:24;;;;;;;4.93;2.20;;;15.70;78.50;;;;;;5052629;28;20694;-90
2023/08/26 00:31:50;;;;;;;6.83;2.50;;;15.80;81.10;;;;;;5053116;28;20243;-89
2023/08/26 00:34:15;;;;;;;6.63;1.77;;;15.70;78.90;;;;;;5053020;28;20212;-88
2023/08/26 00:36:43;;;;;;;7.87;2.20;;;15.80;79.10;;;;;;5052363;28;20176;-89
2023/08/26 00:39:09;;;;;;;5.70;1.70;;;15.80;79.70;;;;;;5054236;28;20254;-90
2023/08/26 00:41:34;;;;;;;4.50;2.23;;;15.80;79.50;;;;;;5053631;28;20263;-90
2023/08/26 00:44:00;;;;;;;4.17;2.07;;;15.80;79.40;;;;;;5053340;28;20632;-90
2023/08/26 00:46:28;;;;;;;10.07;2.37;;;15.90;78.90;;;;;;5054158;28;20183;-90
2023/08/26 00:48:54;;;;;;;5.30;2.47;;;15.90;75.30;;;;;;5053241;28;20177;-91
2023/08/26 00:51:26;;;;;;;7.80;2.40;;;15.70;78.50;;;;;;5061844;28;20187;-90
2023/08/26 00:53:53;;;;;;;5.00;2.70;;;15.60;84.50;;;;;;5058915;28;20197;-88
2023/08/26 00:56:19;;;;;;;8.20;2.63;;;15.50;86.10;;;;;;5053830;28;20174;-91
2023/08/26 00:58:45;;;;;;;5.33;2.43;;;15.60;84.50;;;;;;5053730;28;20223;-92
2023/08/26 01:01:12;;;;;;;4.73;2.00;;;15.40;87.90;;;;;;5055073;28;20166;-92
2023/08/26 01:03:39;;;;;;;5.93;2.20;;;15.40;91.30;;;;;;5053427;28;20640;-91
2023/08/26 01:06:05;;;;;;;4.27;2.27;;;15.40;90.80;;;;;;5053023;28;20170;-90
2023/08/26 01:08:31;;;;;;;6.13;2.30;;;15.40;91.20;;;;;;5060396;28;20188;-90
2023/08/26 01:11:07;;;;;;;5.03;2.00;;;15.30;91.60;;;;;;5074540;28;20253;-90
2023/08/26 01:13:51;;;;;;;5.93;2.37;;;15.40;91.10;;;;;;5070473;28;20209;-88
2023/08/26 01:16:21;;;;;;;3.40;2.30;;;15.50;90.70;;;;;;5054890;28;20196;-87
2023/08/26 01:18:50;;;;;;;5.40;2.30;;;15.50;90.30;;;;;;5054124;28;20195;-86
2023/08/26 01:21:20;;;;;;;7.63;2.50;;;15.40;92.00;;;;;;5052589;28;20263;-87
2023/08/26 01:23:47;;;;;;;6.13;2.30;;;15.40;92.00;;;;;;5052330;28;20169;-91
2023/08/26 01:26:15;;;;;;;4.67;2.50;;;15.40;92.50;;;;;;5052908;28;20641;-88
2023/08/26 01:28:41;;;;;;;4.40;2.33;;;15.50;91.70;;;;;;5051970;28;20623;-88
2023/08/26 01:31:12;;;;;;;6.03;2.37;;;15.50;92.80;;;;;;5052653;28;20180;-89
2023/08/26 01:33:50;;;;;;;4.83;2.20;;;15.50;91.70;;;;;;5052412;28;20255;-87
2023/08/26 01:36:19;;;;;;;3.50;1.77;;;15.40;92.50;;;;;;5052951;28;20176;-86
2023/08/26 01:38:45;;;;;;;6.30;2.30;;;15.30;93.30;;;;;;5051271;28;20163;-90
2023/08/26 01:41:17;;;;;;;4.57;2.20;;;15.30;94.50;;;;;;5052370;28;20177;-88
2023/08/26 01:43:43;;;;;;;5.83;2.53;;;15.30;95.10;;;;;;5060898;28;20219;-88
2023/08/26 01:46:09;;;;;;;7.40;2.17;;;15.20;95.70;;;;;;5061287;28;20181;-88
2023/08/26 01:48:52;;;;;;;7.23;2.10;;;15.30;96.20;;;;;;5051663;28;20287;-88
2023/08/26 01:51:17;;;;;;;6.70;2.07;;;15.30;95.70;;;;;;5051899;28;20180;-88
2023/08/26 01:53:43;;;;;;;7.70;2.80;;;15.40;95.20;;;;;;5051999;28;20212;-88
2023/08/26 01:56:10;;;;;;;5.77;2.57;;;15.50;94.20;;;;;;5052642;28;20213;-88
2023/08/26 01:58:36;;;;;;;5.00;2.23;;;15.50;93.30;;;;;;5053201;28;20173;-90
2023/08/26 02:01:06;;;;;;;7.60;2.50;;;15.50;93.30;;;;;;5061106;28;20197;-89
2023/08/26 02:03:32;;;;;;;5.90;1.80;;;15.60;92.50;;;;;;5078923;28;20167;-89
2023/08/26 02:05:57;;;;;;;8.57;2.50;;;15.70;90.70;;;;;;5076377;28;20657;-87
2023/08/26 02:08:23;;;;;;;7.30;2.70;;;15.60;92.00;;;;;;5077774;28;20210;-88
2023/08/26 02:10:57;;;;;;;5.33;2.07;;;15.50;92.60;;;;;;5067707;28;20551;-87
2023/08/26 02:13:29;;;;;;;7.03;2.43;;;15.50;93.70;;;;;;5058504;28;20204;-88
2023/08/26 02:15:58;;;;;;;4.13;2.27;;;15.70;92.70;;;;;;5056361;28;20193;-87
2023/08/26 02:18:25;;;;;;;5.93;2.30;;;15.80;90.90;;;;;;5056670;28;20168;-88
2023/08/26 02:20:50;;;;;;;5.63;2.30;;;15.80;90.80;;;;;;5057271;28;20230;-89
2023/08/26 02:23:17;;;;;;;6.87;2.20;;;15.70;91.60;;;;;;5054475;28;20645;-88
2023/08/26 02:25:43;;;;;;;8.53;2.50;;;15.60;92.80;;;;;;5054572;28;20165;-88
2023/08/26 02:28:10;;;;;;;4.97;2.00;;;15.60;93.30;;;;;;5054718;28;20173;-89
2023/08/26 02:30:36;;;;;;;7.10;1.87;;;15.60;93.70;;;;;;5055638;28;20169;-88
2023/08/26 02:33:06;;;;;;;6.87;2.30;;;15.60;93.60;;;;;;5054478;28;20204;-87
2023/08/26 02:35:33;;;;;;;5.57;2.60;;;15.70;92.40;;;;;;5055025;28;20188;-88
2023/08/26 02:38:00;;;;;;;6.07;2.30;;;15.80;91.40;;;;;;5053831;28;20597;-88
2023/08/26 02:40:26;;;;;;;5.00;2.10;;;15.70;91.60;;;;;;5055353;28;20177;-89
2023/08/26 02:42:52;;;;;;;5.97;1.97;;;15.60;92.80;;;;;;5055717;28;20276;-87
2023/08/26 02:45:17;;;;;;;4.20;1.87;;;15.60;94.40;;;;;;5038303;28;20701;-91
2023/08/26 02:47:43;;;;;;;5.30;2.20;;;15.70;92.90;;;;;;5055484;28;20263;-90
2023/08/26 02:50:09;;;;;;;4.63;1.77;;;15.60;93.00;;;;;;5056381;28;20212;-89
2023/08/26 02:52:35;;;;;;;5.80;2.00;;;15.70;92.00;;;;;;5054489;28;20181;-88
2023/08/26 02:55:01;;;;;;;6.53;2.20;;;15.70;92.70;;;;;;5055592;28;20216;-89
2023/08/26 02:57:27;;;;;;;4.33;2.03;;;15.70;91.90;;;;;;5056604;28;20188;-87
2023/08/26 02:59:52;;;;;;;5.93;1.90;;;15.70;91.70;;;;;;5054748;28;20180;-88
2023/08/26 03:02:24;;;;;;;4.23;2.20;;;15.60;92.70;;;;;;5055484;28;20182;-88
2023/08/26 03:04:52;;;;;;;5.87;2.30;;;15.60;93.30;;;;;;5054836;28;20177;-88
2023/08/26 03:07:17;;;;;;;5.97;2.10;;;15.60;92.70;;;;;;5055125;28;20178;-89
2023/08/26 03:09:44;;;;;;;4.03;1.90;;;15.50;93.30;;;;;;5053455;28;20173;-88
2023/08/26 03:12:10;;;;;;;3.07;1.60;;;15.40;94.10;;;;;;5054274;28;20177;-89
2023/08/26 03:14:35;;;;;;;4.53;1.80;;;15.50;93.90;;;;;;5060430;28;20243;-89
2023/08/26 03:17:03;;;;;;;4.63;1.83;;;15.50;93.10;;;;;;5061424;28;20171;-89
2023/08/26 03:19:31;;;;;;;6.93;1.90;;;15.60;91.70;;;;;;5072363;28;20188;-89
2023/08/26 03:21:57;;;;;;;5.53;1.87;;;15.50;92.10;;;;;;5055476;28;20195;-89
2023/08/26 03:24:23;;;;;;;4.50;1.70;;;15.40;92.10;;;;;;5054530;28;20173;-89
2023/08/26 03:26:49;;;;;;;3.10;1.67;;;15.40;92.70;;;;;;5053350;28;20194;-87
2023/08/26 03:29:14;;;;;;;6.10;1.60;;;15.50;92.70;;;;;;5053399;28;20264;-87
2023/08/26 03:31:42;;;;;;;3.83;2.03;;;15.50;92.30;;;;;;5054266;28;20188;-88
2023/08/26 03:34:08;;;;;;;3.73;1.70;;;15.60;91.90;;;;;;5053801;28;20244;-88
2023/08/26 03:36:34;;;;;;;4.30;1.90;;;15.50;92.20;;;;;;5053013;28;20192;-89
2023/08/26 03:39:00;;;;;;;2.63;1.53;;;15.60;91.60;;;;;;5053568;28;20193;-88
2023/08/26 03:41:25;;;;;;;5.43;1.73;;;15.50;91.70;;;;;;5053718;28;20170;-87
2023/08/26 03:43:52;;;;;;;4.30;1.57;;;15.50;91.70;;;;;;5053750;28;20273;-89
2023/08/26 03:46:17;;;;;;;4.43;1.57;;;15.50;91.80;;;;;;5054346;28;20175;-88
2023/08/26 03:48:43;;;;;;;3.90;1.70;;;15.40;91.70;;;;;;5054461;28;20188;-90
2023/08/26 03:51:09;;;;;;;3.60;1.57;;;15.50;92.00;;;;;;5054119;28;20541;-87
2023/08/26 03:53:35;;;;;;;2.97;1.60;;;15.50;90.70;;;;;;5053261;28;20214;-87
2023/08/26 03:56:01;;;;;;;6.17;1.90;;;15.40;91.90;;;;;;5052192;28;20172;-87
2023/08/26 03:58:27;;;;;;;2.90;1.57;;;15.50;92.20;;;;;;5054072;28;20164;-88
2023/08/26 04:01:01;;;;;;;5.13;1.53;;;15.40;91.60;;;;;;5053881;28;20177;-90
2023/08/26 04:03:26;;;;;;;4.20;1.77;;;15.40;91.40;;;;;;5051671;28;20193;-87
2023/08/26 04:05:59;;;;;;;5.53;1.87;;;15.40;91.10;;;;;;5055304;28;20310;-88
2023/08/26 04:08:25;;;;;;;4.97;1.83;;;15.40;91.80;;;;;;5052572;28;20250;-88
2023/08/26 04:10:56;;;;;;;3.83;1.40;;;15.40;91.80;;;;;;5053599;28;20188;-88
2023/08/26 04:13:24;;;;;;;5.03;1.87;;;15.40;91.40;;;;;;5054825;28;20194;-88
2023/08/26 04:15:55;;;;;;;6.07;1.60;;;15.50;90.20;;;;;;5053805;28;20248;-88
2023/08/26 04:18:22;;;;;;;2.63;1.53;;;15.40;92.00;;;;;;5053905;28;20184;-86
2023/08/26 04:20:49;;;;;;;3.10;1.40;;;15.40;91.70;;;;;;5055411;28;20247;-88
2023/08/26 04:23:14;;;;;;;3.50;1.60;;;15.40;91.80;;;;;;5052099;28;20173;-87
2023/08/26 04:25:41;;;;;;;3.87;1.73;;;15.40;91.70;;;;;;5052422;28;20183;-89
2023/08/26 04:28:07;;;;;;;5.27;1.80;;;15.40;91.60;;;;;;5053362;28;20177;-87
2023/08/26 04:30:33;;;;;;;3.67;1.70;;;15.40;90.70;;;;;;5037273;28;20191;-88
2023/08/26 04:33:00;;;;;;;4.77;1.70;;;15.40;91.10;;;;;;5053600;28;20591;-88
2023/08/26 04:35:27;;;;;;;3.43;1.57;;;15.40;91.90;;;;;;5053207;28;20204;-88
2023/08/26 04:37:53;;;;;;;4.00;1.60;;;15.30;92.90;;;;;;5053064;28;20169;-90
2023/08/26 04:40:19;;;;;;;5.63;1.83;;;15.30;93.50;;;;;;5072851;28;20239;-87
2023/08/26 04:42:45;;;;;;;3.50;1.43;;;15.30;94.20;;;;;;5074310;28;20173;-85
2023/08/26 04:45:14;;;;;;;5.37;1.60;;;15.30;93.80;;;;;;5071386;28;20157;-88
2023/08/26 04:47:41;;;;;;;7.03;2.10;;;15.30;94.10;;;;;;5071717;28;20272;-90
2023/08/26 04:50:07;;;;;;;4.77;2.00;;;15.30;93.60;;;;;;5070751;28;20168;-87
2023/08/26 04:52:37;;;;;;;6.40;1.70;;;15.40;94.30;;;;;;5076458;28;20170;-86
2023/08/26 04:55:04;;;;;;;2.47;1.40;;;15.30;94.90;;;;;;5075045;28;20228;-88
2023/08/26 04:57:36;;;;;;;3.50;1.40;;;15.30;95.20;;;;;;5062606;28;20161;-88
2023/08/26 05:00:06;;;;;;;5.80;1.50;;;15.30;95.10;;;;;;5055124;28;20232;-88
2023/08/26 05:02:31;;;;;;;4.50;1.83;;;15.30;95.60;;;;;;5061295;28;20149;-88
2023/08/26 05:04:58;;;;;;;5.63;1.93;;;15.30;95.60;;;;;;5074690;28;20193;-87
2023/08/26 05:07:24;;;;;;;6.27;2.13;;;15.30;95.30;;;;;;5074688;28;20165;-88
2023/08/26 05:09:50;;;;;;;6.40;1.90;;;15.40;94.70;;;;;;5074468;28;20179;-89
2023/08/26 05:12:15;;;;;;;3.97;1.70;;;15.30;95.50;;;;;;5075431;28;20191;-87
2023/08/26 05:14:41;;;;;;;4.83;1.70;;;15.30;96.30;;;;;;5076118;28;20200;-91
2023/08/26 05:17:07;;;;;;;8.33;2.00;;;15.30;96.60;;;;;;5075760;28;20172;-90
2023/08/26 05:19:33;;;;;;;2.70;1.83;;;15.40;97.00;;;;;;5076140;28;20160;-88
2023/08/26 05:21:58;;;;;;;3.33;1.70;;;15.30;97.10;;;;;;5075538;28;20166;-88
2023/08/26 05:24:24;;;;;;;3.20;1.50;;;15.20;97.10;;;;;;5073462;28;20181;-88
2023/08/26 05:26:53;;;;;;;5.17;1.80;;;15.30;97.00;;;;;;5074612;28;20185;-87
2023/08/26 05:29:21;;;;;;;6.30;2.10;;;15.30;97.30;;;;;;5076344;28;20173;-89
2023/08/26 05:31:47;;;;;;;6.10;1.80;;;15.30;97.30;;;;;;5074762;28;20173;-87
2023/08/26 05:34:14;;;;;;;5.60;1.83;;;15.30;97.30;;;;;;5065081;28;20748;-87
2023/08/26 05:36:42;;;;;;;3.57;1.80;;;15.30;96.80;;;;;;5070505;28;20254;-89
2023/08/26 05:39:12;;;;;;;5.83;1.90;;;15.30;96.80;;;;;;5060326;28;20193;-88
2023/08/26 05:41:40;;;;;;;3.23;1.50;;;15.30;96.30;;;;;;5059402;28;20161;-88
2023/08/26 05:44:19;;;;;;;5.90;1.83;;;15.30;96.40;;;;;;5068808;28;20169;-87
2023/08/26 05:46:48;;;;;;;5.60;2.00;;;15.30;96.30;;;;;;5078454;28;20171;-88
2023/08/26 05:49:15;;;;;;;3.10;1.63;;;15.40;95.40;;;;;;5075991;28;20145;-87
2023/08/26 05:51:48;;;;;;;5.33;1.77;;;15.50;94.60;;;;;;5066172;28;20181;-88
2023/08/26 05:54:16;;;;;;;7.63;1.80;;;15.50;94.30;;;;;;5059758;28;20223;-89
2023/08/26 05:56:45;;;;;;;4.77;2.07;;;15.60;93.30;;;;;;5058669;28;20258;-89
2023/08/26 05:59:12;;;;;;;7.23;2.10;;;15.80;92.50;;;;;;5057771;28;20181;-87
2023/08/26 06:01:39;;;;;;;7.57;2.00;;;15.80;90.00;;;;;;5058311;28;20184;-88
2023/08/26 06:04:06;;;;;;;6.47;2.30;;;15.90;90.10;;;;;;5059445;28;20173;-86
2023/08/26 06:06:33;;;;;;;6.37;2.20;;;16.00;88.60;;;;;;5058727;28;20177;-87
2023/08/26 06:08:59;;;;;;;5.23;1.80;;;16.00;85.60;;;;;;5058692;28;20176;-87
2023/08/26 06:11:24;;;;;;;6.90;2.40;;;16.00;85.80;;;;;;5058779;28;20188;-89
2023/08/26 06:13:51;;;;;;;6.63;2.13;;;16.20;82.80;;;;;;5059549;28;20608;-87
2023/08/26 06:16:20;;;;;;;5.77;2.17;;;16.30;77.70;;;;;;5057958;28;20283;-89
2023/08/26 06:18:47;;;;;;;4.07;2.00;;;16.40;74.90;;;;;;5056888;28;20181;-86
2023/08/26 06:21:13;;;;;;;5.53;2.27;;;16.40;72.40;;;;;;5055669;28;20835;-87
2023/08/26 06:23:38;;;;;;;7.37;2.60;;;16.60;65.80;;;;;;5055694;28;20176;-89
2023/08/26 06:26:04;;;;;;;7.20;2.40;;;16.60;64.20;;;;;;5055489;28;20556;-87
2023/08/26 06:28:30;;;;;;;7.17;2.30;;;16.50;65.40;;;;;;5072652;28;20167;-85
2023/08/26 06:31:00;;;;;;;5.87;2.50;;;16.60;62.80;;;;;;5057086;28;20585;-87
2023/08/26 06:33:29;;;;;;;5.77;2.67;;;16.60;67.00;;;;;;5055092;28;20198;-85
2023/08/26 06:35:55;;;;;;;5.10;2.50;;;16.70;66.40;;;;;;5054056;28;20172;-86
2023/08/26 06:38:20;;;;;;;4.80;2.70;;;16.70;67.10;;;;;;5054920;28;20178;-86
2023/08/26 06:40:55;;;;;;;3.67;2.10;;;16.70;66.20;;;;;;5055093;28;20196;-87
2023/08/26 06:43:20;;;;;;;5.17;2.43;;;16.90;60.20;;;;;;5055756;28;20628;-88
2023/08/26 06:45:46;;;;;;;5.57;2.33;;;16.90;58.70;;;;;;5054535;28;20182;-89
2023/08/26 06:48:12;;;;;;;5.73;2.17;;;17.00;58.40;;;;;;5057154;28;20181;-90
2023/08/26 06:50:39;;;;;;;5.87;2.73;;;17.00;59.50;;;;;;5055915;28;20180;-90
2023/08/26 06:53:04;;;;;;;4.10;2.50;;;17.00;58.70;;;;;;5058049;28;20205;-89
2023/08/26 06:55:30;;;;;;;6.33;2.40;;;17.00;58.40;;;;;;5059017;28;20624;-90
2023/08/26 06:57:56;;;;;;;4.80;2.23;;;17.10;55.80;;;;;;5056182;28;20192;-90
2023/08/26 07:00:22;;;;;;;5.97;2.07;;;17.10;53.90;;;;;;5056603;28;20174;-88
2023/08/26 07:02:48;;;;;;;6.73;2.63;;;17.00;55.70;;;;;;5057868;28;20194;-89
2023/08/26 07:05:13;;;;;;;4.47;2.10;;;17.20;55.10;;;;;;5056118;28;20177;-90
2023/08/26 07:07:41;;;;;;;6.30;2.23;;;17.30;52.90;;;;;;5056938;28;20652;-89
2023/08/26 07:10:07;;;;;;;3.43;1.80;;;17.40;52.40;;;;;;5039707;28;20178;-90
2023/08/26 07:12:33;;;;;;;5.13;2.10;;;17.40;51.50;;;;;;5053531;28;20183;-90
2023/08/26 07:14:58;;;;;;;5.53;1.90;;;17.30;53.50;;;;;;5056935;28;20230;-89
2023/08/26 07:17:24;;;;;;;8.53;2.80;;;17.50;50.60;;;;;;5056638;28;20215;-90
2023/08/26 07:19:50;;;;;;;8.70;2.63;;;17.50;48.60;;;;;;5055606;28;20177;-90
2023/08/26 07:22:16;;;;;;;5.87;2.00;;;17.50;48.10;;;;;;5055413;28;20174;-90
2023/08/26 07:24:42;;;;;;;3.67;1.80;;;17.60;43.40;;;;;;5056383;28;20178;-91
2023/08/26 07:27:09;;;;;;;6.60;2.07;;;17.70;41.70;;;;;;5055950;28;20190;-90
2023/08/26 07:29:38;;;;;;;4.20;2.30;;;17.60;42.80;;;;;;5057418;28;20196;-90
2023/08/26 07:32:04;;;;;;;3.00;2.07;;;17.50;45.20;;;;;;5064418;28;20185;-90
2023/08/26 07:34:31;;;;;;;6.93;2.17;;;17.50;45.60;;;;;;5056767;28;20267;-91
2023/08/26 07:36:58;;;;;;;5.43;2.40;;;17.50;46.00;;;;;;5057909;28;20179;-90
2023/08/26 07:39:24;;;;;;;4.23;2.50;;;17.60;42.00;;;;;;5061336;28;20302;-89
2023/08/26 07:41:50;;;;;;;4.83;2.47;;;17.50;45.80;;;;;;5055733;28;20168;-91
2023/08/26 07:44:16;;;;;;;5.83;2.70;;;17.50;45.00;;;;;;5057007;28;20188;-89
2023/08/26 07:46:42;;;;;;;6.27;2.60;;;17.60;43.90;;;;;;5058020;28;20176;-91
2023/08/26 07:49:07;;;;;;;6.47;2.73;;;17.80;42.90;;;;;;5038521;28;20615;-90
2023/08/26 07:51:33;;;;;;;6.30;2.37;;;18.00;38.90;;;;;;5053675;28;20184;-89
2023/08/26 07:53:59;;;;;;;4.77;2.43;;;18.00;35.10;;;;;;5051886;28;20210;-89
2023/08/26 07:56:24;;;;;;;4.10;2.43;;;18.10;32.20;;;;;;5051352;28;20640;-89
2023/08/26 07:58:51;;;;;;;6.27;2.60;;;18.10;30.60;;;;;;5053399;28;20286;-88
2023/08/26 08:01:18;;;;;;;6.20;2.50;;;18.20;28.70;;;;;;5054150;28;20184;-88
2023/08/26 08:03:45;;;;;;;5.10;2.50;;;18.20;31.50;;;;;;5066747;28;20182;-88
2023/08/26 08:06:10;;;;;;;3.43;2.07;;;18.30;27.60;;;;;;5053198;28;20933;-84
2023/08/26 08:08:39;;;;;;;6.03;2.20;;;18.20;29.60;;;;;;5051582;28;20244;-86
2023/08/26 08:11:05;;;;;;;5.43;2.53;;;18.20;31.70;;;;;;5051742;28;20178;-87
2023/08/26 08:13:31;;;;;;;3.77;1.77;;;18.20;31.80;;;;;;5052254;28;20200;-88
2023/08/26 08:15:57;;;;;;;4.33;1.80;;;18.40;23.00;;;;;;5050753;28;20646;-86
2023/08/26 08:18:23;;;;;;;6.13;2.27;;;18.50;23.60;;;;;;5051698;28;20177;-84
2023/08/26 08:20:52;;;;;;;5.53;1.90;;;18.60;99.90;;;;;;5050691;28;20273;-86
2023/08/26 08:23:18;;;;;;;6.00;2.30;;;18.50;99.90;;;;;;5050633;28;20796;-86
2023/08/26 08:25:47;;;;;;;5.17;1.50;;;18.70;20.10;;;;;;5053243;28;20183;-86
2023/08/26 08:28:12;;;;;;;3.23;1.30;;;18.60;99.90;;;;;;5057891;28;20195;-86
2023/08/26 08:30:38;;;;;;;5.23;2.20;;;18.70;99.90;;;;;;5068941;28;20197;-86
2023/08/26 08:33:06;;;;;;;8.70;2.50;;;18.60;99.90;;;;;;5069768;28;20220;-84
2023/08/26 08:35:34;;;;;;;6.90;2.20;;;18.80;99.90;;;;;;5045589;28;20207;-86
2023/08/26 08:38:00;;;;;;;4.80;2.53;;;18.70;99.90;;;;;;5063726;28;20197;-86
2023/08/26 08:40:25;;;;;;;6.27;1.73;;;18.80;99.90;;;;;;5059511;28;20183;-84
2023/08/26 08:42:54;;;;;;;4.97;1.43;;;18.90;99.90;;;;;;5053237;28;20185;-85
2023/08/26 08:45:21;;;;;;;3.50;1.57;;;19.00;99.90;;;;;;5061281;28;20181;-86
2023/08/26 08:47:47;;;;;;;5.50;2.40;;;19.10;99.90;;;;;;5060868;28;20244;-87
2023/08/26 08:50:15;;;;;;;8.47;2.03;;;19.20;99.90;;;;;;5067390;28;20243;-85
2023/08/26 08:52:43;;;;;;;9.93;2.03;;;19.40;99.90;;;;;;5071791;28;20184;-88
2023/08/26 08:55:09;;;;;;;5.40;2.00;;;19.40;99.90;;;;;;5071928;28;20230;-86
2023/08/26 08:57:35;;;;;;;6.63;2.23;;;19.50;99.90;;;;;;5071619;28;20168;-86
2023/08/26 09:00:03;;;;;;;4.53;2.00;;;19.60;99.90;;;;;;5070692;28;20238;-89
2023/08/26 09:02:29;;;;;;;6.00;2.30;;;19.50;99.90;;;;;;5069173;28;20173;-89
2023/08/26 09:04:55;;;;;;;3.87;2.00;;;19.60;99.90;;;;;;5069380;28;20182;-88
2023/08/26 09:07:22;;;;;;;4.63;2.03;;;19.70;99.90;;;;;;5063496;28;20230;-87
2023/08/26 09:09:48;;;;;;;5.00;2.20;;;19.90;99.90;;;;;;5051323;28;20569;-87
2023/08/26 09:12:13;;;;;;;6.30;2.00;;;19.90;99.90;;;;;;5051912;28;20196;-87
2023/08/26 09:14:39;;;;;;;5.87;2.13;;;19.90;99.90;;;;;;5053667;28;20235;-86
2023/08/26 09:17:16;;;;;;;5.37;2.20;;;19.90;99.90;;;;;;5052460;28;20191;-85
2023/08/26 09:19:53;;;;;;;5.47;1.70;;;19.90;99.90;;;;;;5055282;28;20189;-86
2023/08/26 09:22:20;;;;;;;4.50;2.10;;;20.00;99.90;;;;;;5056914;28;20176;-88
2023/08/26 09:24:47;;;;;;;3.47;2.00;;;20.10;99.90;;;;;;5061595;28;20183;-86
2023/08/26 09:27:15;;;;;;;5.03;2.43;;;20.20;99.90;;;;;;5060450;28;20183;-88
2023/08/26 09:29:41;;;;;;;4.97;2.30;;;20.30;99.90;;;;;;5056914;28;20188;-89
2023/08/26 09:32:07;;;;;;;4.10;2.33;;;20.40;99.90;;;;;;5055849;28;20192;-87
2023/08/26 09:34:33;;;;;;;4.77;2.57;;;20.40;99.90;;;;;;5050903;28;20206;-86
2023/08/26 09:36:59;;;;;;;6.83;2.40;;;20.50;99.90;;;;;;5055149;28;20233;-84
2023/08/26 09:39:26;;;;;;;9.40;2.80;;;20.50;99.90;;;;;;5064322;28;20645;-85
2023/08/26 09:41:55;;;;;;;10.60;2.47;;;20.60;99.90;;;;;;5050269;28;20181;-86
2023/08/26 09:44:21;;;;;;;10.70;2.10;;;20.80;99.90;;;;;;5048385;28;20174;-88
2023/08/26 09:46:47;;;;;;;6.77;2.20;;;20.70;99.90;;;;;;5054826;28;20228;-88
2023/08/26 09:49:14;;;;;;;4.13;1.80;;;20.70;99.90;;;;;;5051177;28;20207;-89
2023/08/26 09:51:51;;;;;;;3.37;2.00;;;20.70;99.90;;;;;;5050863;28;20212;-90
2023/08/26 09:54:24;;;;;;;3.80;1.80;;;20.80;99.90;;;;;;5051617;28;20292;-87
2023/08/26 09:56:50;;;;;;;4.73;1.93;;;20.80;99.90;;;;;;5050003;28;20183;-86
2023/08/26 09:59:17;;;;;;;3.70;1.67;;;20.70;99.90;;;;;;5049469;28;20301;-89
2023/08/26 10:01:43;;;;;;;2.47;1.47;;;20.70;99.90;;;;;;5052384;28;20178;-88
2023/08/26 10:04:12;;;;;;;3.47;2.10;;;20.60;99.90;;;;;;5035444;28;20231;-88
2023/08/26 10:07:00;;;;;;;4.63;1.70;;;20.80;99.90;;;;;;5048132;28;20635;-89
2023/08/26 10:09:55;;;;;;;3.70;1.63;;;21.00;99.90;;;;;;5043360;28;20184;-87
2023/08/26 10:12:29;;;;;;;2.97;1.80;;;21.10;99.90;;;;;;5050489;28;20637;-86
2023/08/26 10:14:59;;;;;;;5.03;1.80;;;21.10;99.90;;;;;;5048064;28;20267;-87
2023/08/26 10:17:28;;;;;;;4.23;1.97;;;21.20;99.90;;;;;;5048185;28;20191;-86
2023/08/26 10:19:55;;;;;;;3.27;1.60;;;21.20;99.90;;;;;;5047855;28;20197;-86
2023/08/26 10:22:21;;;;;;;3.17;1.30;;;21.20;99.90;;;;;;5052376;28;20249;-86
2023/08/26 10:24:48;;;;;;;2.43;0.87;;;21.10;99.90;;;;;;5052204;28;20673;-85
2023/08/26 10:27:14;;;;;;;3.33;1.27;;;21.00;99.90;;;;;;5052484;28;20967;-85
2023/08/26 10:29:41;;;;;;;2.63;1.07;;;20.80;99.90;;;;;;5051309;28;20198;-87
2023/08/26 10:32:20;;;;;;;2.80;1.27;;;20.70;99.90;;;;;;5055808;28;20559;-90
2023/08/26 10:34:57;;;;;;;2.83;1.10;;;20.90;99.90;;;;;;5058020;28;20211;-93
2023/08/26 10:37:28;;;;;;;2.70;1.00;;;21.10;99.90;;;;;;5055709;28;20254;-87
2023/08/26 10:39:55;;;;;;;5.77;1.60;;;21.40;99.90;;;;;;5053570;28;20604;-89
2023/08/26 10:42:22;;;;;;;2.40;1.00;;;21.20;99.90;;;;;;5053766;28;20229;-88
2023/08/26 10:44:57;;;;;;;2.50;1.20;;;21.00;99.90;;;;;;5053532;28;20198;-89
2023/08/26 10:47:46;;;;;;;2.90;1.10;;;20.90;99.90;;;;;;5053579;28;20183;-86
2023/08/26 10:50:22;;;;;;;4.27;1.50;;;21.00;99.90;;;;;;5051522;28;20186;-89
2023/08/26 10:52:59;;;;;;;3.27;1.20;;;21.30;99.90;;;;;;5057402;28;20215;-87
2023/08/26 10:55:33;;;;;;;4.40;1.30;;;21.30;99.90;;;;;;5052148;28;20204;-88
2023/08/26 10:58:13;;;;;;;2.30;1.10;;;21.30;99.90;;;;;;5050058;28;20205;-90
2023/08/26 11:00:50;;;;;;;2.17;1.10;;;21.40;99.90;;;;;;5052450;28;20174;-83
2023/08/26 11:03:22;;;;;;;2.40;1.10;;;21.40;99.90;;;;;;5048624;28;20812;-83
2023/08/26 11:06:02;;;;;;;3.33;1.00;;;21.50;99.90;;;;;;5055462;28;20191;-86
2023/08/26 11:08:28;;;;;;;3.00;1.07;;;21.30;99.90;;;;;;5052098;28;20844;-86
2023/08/26 11:10:54;;;;;;;3.60;1.40;;;21.40;99.90;;;;;;5057080;28;20179;-87
2023/08/26 11:13:22;;;;;;;4.70;2.37;;;21.60;99.90;;;;;;5069675;28;20226;-86
2023/08/26 11:15:49;;;;;;;4.67;1.37;;;21.50;99.90;;;;;;5059983;28;20285;-90
2023/08/26 11:18:16;;;;;;;2.27;1.10;;;21.50;99.90;;;;;;5065448;28;20271;-90
2023/08/26 11:20:43;;;;;;;3.10;1.47;;;21.50;99.90;;;;;;5061556;28;20231;-89
2023/08/26 11:23:10;;;;;;;2.53;1.00;;;21.60;99.90;;;;;;5063964;28;20179;-89
2023/08/26 11:25:37;;;;;;;4.30;0.90;;;21.50;99.90;;;;;;5064856;28;20194;-90
2023/08/26 11:28:07;;;;;;;3.77;1.13;;;21.40;99.90;;;;;;5061582;28;20693;-90
2023/08/26 11:30:45;;;;;;;2.43;0.80;;;21.40;99.90;;;;;;5062160;28;20180;-90
2023/08/26 11:33:15;;;;;;;2.50;1.20;;;21.60;99.90;;;;;;5063998;28;20273;-91
2023/08/26 11:35:45;;;;;;;2.13;1.07;;;21.90;99.90;;;;;;5065638;28;20255;-92
2023/08/26 11:38:12;;;;;;;2.93;1.40;;;22.00;99.90;;;;;;5066058;28;20269;-89
2023/08/26 11:40:38;;;;;;;3.20;1.20;;;22.10;99.90;;;;;;5067773;28;20187;-91
2023/08/26 11:43:16;;;;;;;2.40;0.80;;;22.10;99.90;;;;;;5064742;28;20221;-88
2023/08/26 11:45:50;;;;;;;3.07;0.93;;;22.10;99.90;;;;;;5065980;28;20171;-90
2023/08/26 11:48:15;;;;;;;3.00;1.30;;;22.30;99.90;;;;;;5063079;28;20634;-90
2023/08/26 11:50:42;;;;;;;2.07;1.03;;;22.30;99.90;;;;;;5060199;28;20207;-87
2023/08/26 11:53:08;;;;;;;3.03;0.90;;;22.10;99.90;;;;;;5058416;28;20206;-87
2023/08/26 11:55:35;;;;;;;2.97;1.07;;;22.00;99.90;;;;;;5059481;28;20564;-86
2023/08/26 11:58:02;;;;;;;1.90;0.80;;;22.00;99.90;;;;;;5045170;28;20201;-89
2023/08/26 12:00:28;;;;;;;4.10;0.90;;;22.00;99.90;;;;;;5057586;28;20675;-89
2023/08/26 12:03:03;;;;;;;2.03;0.77;;;22.00;99.90;;;;;;5055406;28;20183;-88
2023/08/26 12:05:40;;;;;;;3.10;0.90;;;22.10;99.90;;;;;;5056220;28;20173;-89
2023/08/26 12:08:12;;;;;;;1.87;0.70;;;22.10;99.90;;;;;;5057260;28;20182;-89
2023/08/26 12:10:38;;;;;;;0.97;0.60;;;22.10;99.90;;;;;;5063800;28;20691;-89
2023/08/26 12:13:04;;;;;;;2.77;1.20;;;22.20;99.90;;;;;;5063786;28;20183;-89
2023/08/26 12:15:30;;;;;;;1.53;0.80;;;22.30;99.90;;;;;;5058070;28;20302;-89
2023/08/26 12:17:57;;;;;;;1.40;0.87;;;22.30;99.90;;;;;;5058440;28;20190;-91
2023/08/26 12:20:30;;;;;;;1.50;0.70;;;22.40;99.90;;;;;;5058554;28;20256;-89
2023/08/26 12:23:02;;;;;;;2.37;0.80;;;22.30;99.90;;;;;;5057860;28;20266;-89
2023/08/26 12:25:35;;;;;;;2.83;1.00;;;22.30;99.90;;;;;;5057775;28;20701;-90
2023/08/26 12:28:26;;;;;;;3.10;0.80;;;22.40;99.90;;;;;;5057851;28;20231;-89
2023/08/26 12:30:52;;;;;;;4.27;0.80;;;22.40;99.90;;;;;;5056689;28;20182;-90
2023/08/26 12:33:18;;;;;;;2.13;0.97;;;22.10;99.90;;;;;;5057229;28;20263;-89
2023/08/26 12:35:46;;;;;;;4.43;1.23;;;21.90;99.90;;;;;;5060310;28;20274;-91
2023/08/26 12:38:13;;;;;;;2.67;1.70;;;21.90;99.90;;;;;;5057296;28;20264;-89
2023/08/26 12:40:41;;;;;;;2.83;0.80;;;21.90;99.90;;;;;;5059301;28;20201;-90
2023/08/26 12:43:07;;;;;;;1.53;0.87;;;22.00;99.90;;;;;;5062628;28;20257;-88
2023/08/26 12:45:34;;;;;;;3.67;1.33;;;21.90;99.90;;;;;;5064653;28;20242;-89
2023/08/26 12:48:01;;;;;;;2.27;0.90;;;21.90;99.90;;;;;;5073063;28;20176;-89